Time;durP1;ratioP1;P1;durP2;ratioP2;P2;SDS_P1;SDS_P2;PMS_P1;PMS_P2;Temp;Humidity;BMP_temperature;BMP_pressure;BME280_temperature;BME280_humidity;BME280_pressure;Samples;Min_cycle;Max_cycle;Signal;HPM_P1;HPM_P2
2022/01/20 00:02:05;;;;;;;45.45;9.10;;;;;;;0.58;100.00;102337.38;5033056;28;20052;-71
2022/01/20 00:25:58;;;;;;;41.40;7.70;;;;;;;0.50;100.00;102340.34;5074481;28;20391;-72
2022/01/20 00:29:00;;;;;;;39.40;8.65;;;;;;;0.49;100.00;102342.84;5071211;28;20438;-72
2022/01/20 00:33:52;;;;;;;41.72;8.20;;;;;;;0.56;100.00;102345.06;5074349;28;20037;-72
2022/01/20 00:38:58;;;;;;;41.30;8.25;;;;;;;0.60;100.00;102349.72;5071965;28;20036;-72
2022/01/20 00:41:24;;;;;;;46.00;8.77;;;;;;;0.69;100.00;102337.31;5074241;28;20020;-72
2022/01/20 00:43:49;;;;;;;39.40;7.68;;;;;;;0.76;100.00;102348.13;5074613;28;20067;-72
2022/01/20 00:46:14;;;;;;;39.03;7.63;;;;;;;0.72;100.00;102348.75;5074414;28;20463;-72
2022/01/20 00:48:40;;;;;;;42.30;8.63;;;;;;;0.67;100.00;102336.31;5074023;28;20071;-72
2022/01/20 00:51:05;;;;;;;35.45;7.38;;;;;;;0.64;100.00;102336.09;5074002;28;20028;-72
2022/01/20 00:53:30;;;;;;;37.10;7.40;;;;;;;0.71;100.00;102337.41;5074422;28;20024;-72
2022/01/20 00:55:56;;;;;;;42.42;7.82;;;;;;;0.77;100.00;102332.66;5074160;28;20384;-72
2022/01/20 00:58:22;;;;;;;42.22;8.00;;;;;;;0.86;100.00;102340.19;5074168;28;20028;-72
2022/01/20 01:00:47;;;;;;;39.25;7.63;;;;;;;0.96;100.00;102350.41;5073877;28;20031;-72
2022/01/20 01:03:12;;;;;;;38.90;7.60;;;;;;;1.19;100.00;102357.16;5073933;28;20093;-72
2022/01/20 01:05:49;;;;;;;39.95;8.00;;;;;;;1.23;100.00;102353.06;5073748;28;20025;-72
2022/01/20 01:08:14;;;;;;;36.22;7.20;;;;;;;1.33;100.00;102350.25;5073940;28;20471;-72
2022/01/20 01:10:41;;;;;;;39.47;7.43;;;;;;;1.41;100.00;102362.88;5073603;28;20029;-72
2022/01/20 01:13:11;;;;;;;36.55;6.50;;;;;;;1.38;100.00;102367.09;5073416;28;20012;-66
2022/01/20 01:15:45;;;;;;;37.10;6.72;;;;;;;1.41;100.00;102371.59;5073896;28;20082;-71
2022/01/20 01:23:31;;;;;;;32.15;5.38;;;;;;;1.48;100.00;102368.59;5073717;28;20529;-71
2022/01/20 01:25:57;;;;;;;;;;;;;;;1.44;100.00;102370.91;5069258;28;20506;-67
2022/01/20 01:28:26;;;;;;;29.10;5.28;;;;;;;1.49;100.00;102369.50;5073782;28;19912;-71
2022/01/20 01:33:41;;;;;;;31.73;5.47;;;;;;;1.36;100.00;102367.81;5029799;28;20044;-66
2022/01/20 01:36:08;;;;;;;32.88;5.68;;;;;;;1.39;100.00;102371.50;5014859;28;20449;-71
2022/01/20 01:38:36;;;;;;;30.40;5.50;;;;;;;1.38;100.00;102374.00;5031248;28;20047;-67
2022/01/20 01:41:14;;;;;;;34.08;5.85;;;;;;;1.36;100.00;102366.09;5031096;28;20037;-67
2022/01/20 01:43:44;;;;;;;32.75;5.28;;;;;;;1.29;100.00;102371.69;5030957;28;20040;-67
2022/01/20 01:46:14;;;;;;;33.08;5.93;;;;;;;1.34;100.00;102362.50;5030996;28;20040;-69
2022/01/20 01:48:42;;;;;;;31.35;5.60;;;;;;;1.42;100.00;102370.81;5031129;28;20026;-70
2022/01/20 01:51:09;;;;;;;30.83;5.35;;;;;;;1.46;100.00;102372.81;5031072;28;20037;-67
2022/01/20 01:53:34;;;;;;;34.55;5.80;;;;;;;1.47;100.00;102371.09;5030879;28;20112;-72
2022/01/20 01:56:01;;;;;;;31.95;6.43;;;;;;;1.44;100.00;102368.28;5031068;28;20544;-72
2022/01/20 01:58:26;;;;;;;33.75;5.82;;;;;;;1.39;100.00;102375.81;5030901;28;20065;-72
2022/01/20 02:00:51;;;;;;;32.53;5.63;;;;;;;1.37;100.00;102383.53;5030825;28;20071;-72
2022/01/20 02:03:17;;;;;;;32.10;5.65;;;;;;;1.35;100.00;102377.31;5030914;28;20512;-72
2022/01/20 02:06:02;;;;;;;34.03;5.82;;;;;;;1.34;100.00;102371.97;5030615;28;20029;-72
2022/01/20 02:19:32;;;;;;;32.00;6.05;;;;;;;1.52;100.00;102372.31;4998583;28;20185;-72
2022/01/20 02:22:02;;;;;;;29.38;5.82;;;;;;;1.63;100.00;102386.97;5002258;28;20112;-72
2022/01/20 02:24:30;;;;;;;29.90;4.93;;;;;;;1.71;100.00;102377.03;4999606;28;20041;-72
2022/01/20 02:26:56;;;;;;;30.30;4.82;;;;;;;1.88;100.00;102399.00;5002604;28;20085;-72
2022/01/20 02:29:22;;;;;;;25.85;4.53;;;;;;;1.98;100.00;102390.03;4999310;28;20046;-72
2022/01/20 02:31:53;;;;;;;26.73;4.32;;;;;;;2.14;100.00;102387.63;5002308;28;20060;-72
2022/01/20 02:34:20;;;;;;;23.73;4.03;;;;;;;2.21;100.00;102378.44;4999669;28;20120;-72
2022/01/20 02:36:47;;;;;;;23.60;4.07;;;;;;;2.29;100.00;102377.22;5006085;28;20525;-69
2022/01/20 02:44:53;;;;;;;25.20;4.20;;;;;;;2.29;100.00;102366.78;5004934;28;20101;-69
2022/01/20 02:47:32;;;;;;;25.58;4.28;;;;;;;2.22;100.00;102364.59;5005318;28;20033;-67
2022/01/20 02:49:58;;;;;;;24.45;4.40;;;;;;;2.22;100.00;102365.50;5046756;28;20490;-71
2022/01/20 02:52:25;;;;;;;23.08;4.03;;;;;;;2.29;100.00;102378.91;5076385;28;20020;-70
2022/01/20 02:54:51;;;;;;;26.13;4.38;;;;;;;2.25;100.00;102376.13;5072076;28;20067;-67
2022/01/20 02:57:18;;;;;;;26.35;3.95;;;;;;;2.13;100.00;102377.06;5076482;28;20028;-71
2022/01/20 02:59:43;;;;;;;24.00;3.97;;;;;;;2.02;100.00;102366.84;5076271;28;20082;-68
2022/01/20 03:02:09;;;;;;;27.23;4.45;;;;;;;1.96;100.00;102358.63;5076372;28;20371;-71
2022/01/20 03:04:36;;;;;;;25.88;4.20;;;;;;;1.84;100.00;102363.06;5076118;28;20418;-71
2022/01/20 03:07:01;;;;;;;27.58;4.80;;;;;;;1.81;100.00;102350.72;5075845;28;20017;-71
2022/01/20 03:09:27;;;;;;;28.13;4.60;;;;;;;1.87;100.00;102351.13;5075933;28;20089;-71
2022/01/20 03:11:52;;;;;;;27.77;4.90;;;;;;;1.90;100.00;102355.63;5076121;28;20032;-72
2022/01/20 03:14:18;;;;;;;26.65;5.07;;;;;;;1.86;100.00;102359.75;5075747;28;20095;-67
2022/01/20 03:16:45;;;;;;;27.75;5.18;;;;;;;1.79;100.00;102362.78;5076131;28;20056;-69
2022/01/20 03:19:13;;;;;;;28.42;5.15;;;;;;;1.74;100.00;102358.97;5075889;28;20078;-67
2022/01/20 03:21:40;;;;;;;28.95;5.65;;;;;;;1.69;100.00;102347.31;5075661;28;20074;-66
2022/01/20 03:24:07;;;;;;;25.15;5.00;;;;;;;1.65;100.00;102341.03;5075726;28;20375;-67
2022/01/20 03:26:33;;;;;;;28.50;5.28;;;;;;;1.55;100.00;102336.03;5075817;28;20035;-67
2022/01/20 03:28:59;;;;;;;28.35;5.15;;;;;;;1.42;100.00;102342.13;5075636;28;20031;-67
2022/01/20 03:31:25;;;;;;;30.25;5.50;;;;;;;1.34;100.00;102339.03;5075569;28;20020;-67
2022/01/20 03:33:51;;;;;;;24.65;4.88;;;;;;;1.29;100.00;102342.13;5071716;28;20035;-70
2022/01/20 03:36:16;;;;;;;30.13;5.35;;;;;;;1.25;100.00;102341.00;5075508;28;20024;-70
2022/01/20 03:38:42;;;;;;;28.08;5.55;;;;;;;1.22;100.00;102340.81;5075680;28;20031;-70
2022/01/20 03:41:07;;;;;;;29.30;5.60;;;;;;;1.26;100.00;102335.00;5075618;28;20360;-66
2022/01/20 03:43:32;;;;;;;30.90;5.45;;;;;;;1.29;100.00;102340.41;5075286;28;20029;-70
2022/01/20 03:46:00;;;;;;;27.70;4.97;;;;;;;1.32;100.00;102348.44;5074535;28;20493;-66
2022/01/20 03:48:27;;;;;;;28.73;5.53;;;;;;;1.43;100.00;102350.84;5074911;28;20063;-66
2022/01/20 03:50:59;;;;;;;35.17;5.60;;;;;;;1.50;100.00;102337.41;5071537;28;20028;-70
2022/01/20 03:53:25;;;;;;;31.10;5.50;;;;;;;1.47;100.00;102347.63;5071861;28;20024;-67
2022/01/20 03:55:51;;;;;;;28.00;5.22;;;;;;;1.48;100.00;102341.63;5071117;28;20032;-66
2022/01/20 03:58:16;;;;;;;31.00;5.03;;;;;;;1.35;100.00;102338.22;5075119;28;20060;-70
2022/01/20 04:00:43;;;;;;;29.73;5.05;;;;;;;1.30;100.00;102329.22;5075554;28;20035;-71
2022/01/20 04:03:10;;;;;;;32.83;5.15;;;;;;;1.19;100.00;102335.41;5075106;28;20032;-71
2022/01/20 04:05:39;;;;;;;30.65;5.00;;;;;;;1.07;100.00;102330.28;5074801;28;20035;-71
2022/01/20 04:08:06;;;;;;;27.67;5.00;;;;;;;0.95;100.00;102346.00;5074848;28;20459;-71
2022/01/20 04:10:32;;;;;;;31.65;5.40;;;;;;;0.87;100.00;102347.16;5075360;28;20447;-71
2022/01/20 04:12:57;;;;;;;30.17;5.30;;;;;;;0.87;100.00;102352.38;5074646;28;20107;-71
2022/01/20 04:15:26;;;;;;;31.08;5.03;;;;;;;0.93;100.00;102352.78;5074814;28;20059;-71
2022/01/20 04:17:55;;;;;;;28.88;5.38;;;;;;;0.99;100.00;102358.44;5070878;28;20027;-71
2022/01/20 04:20:21;;;;;;;29.13;5.22;;;;;;;1.06;100.00;102358.84;5074570;28;20047;-71
2022/01/20 04:22:46;;;;;;;25.73;4.75;;;;;;;1.13;100.00;102361.06;5074641;28;20463;-72
2022/01/20 04:25:11;;;;;;;26.90;4.88;;;;;;;1.23;100.00;102367.78;5074696;28;20025;-71
2022/01/20 04:27:37;;;;;;;29.55;4.82;;;;;;;1.35;100.00;102379.00;5074539;28;20064;-72
2022/01/20 04:30:02;;;;;;;28.98;4.78;;;;;;;1.36;100.00;102376.50;5074748;28;20162;-71
2022/01/20 04:32:28;;;;;;;26.98;4.90;;;;;;;1.36;100.00;102386.94;5074607;28;20099;-71
2022/01/20 04:34:54;;;;;;;27.67;5.47;;;;;;;1.36;100.00;102404.28;5074260;28;20035;-71
2022/01/20 04:37:20;;;;;;;31.33;5.22;;;;;;;1.37;100.00;102420.03;5074707;28;20122;-71
2022/01/20 04:39:48;;;;;;;27.98;5.18;;;;;;;1.42;100.00;102390.75;5074541;28;20032;-70
2022/01/20 04:42:14;;;;;;;29.65;4.80;;;;;;;1.51;100.00;102384.44;5074194;28;20026;-71
2022/01/20 04:47:21;;;;;;;29.48;5.57;;;;;;;1.78;100.00;102383.53;5074185;28;20535;-66
2022/01/20 04:58:19;;;;;;;27.23;4.47;;;;;;;1.89;100.00;102392.94;5031848;28;20162;-67
2022/01/20 05:00:44;;;;;;;26.50;4.50;;;;;;;1.90;100.00;102402.59;5031774;28;20112;-71
2022/01/20 05:03:09;;;;;;;27.98;4.70;;;;;;;1.90;100.00;102408.69;5031785;28;20108;-66
2022/01/20 05:05:35;;;;;;;26.75;4.40;;;;;;;1.97;100.00;102410.00;5031952;28;20119;-70
2022/01/20 05:08:01;;;;;;;26.42;4.45;;;;;;;1.92;100.00;102422.75;5031595;28;20496;-69
2022/01/20 05:10:30;;;;;;;26.45;4.28;;;;;;;1.96;100.00;102426.44;5031821;28;20025;-68
2022/01/20 05:15:22;;;;;;;30.17;4.72;;;;;;;2.00;100.00;102420.63;5012641;28;20136;-66
2022/01/20 05:17:48;;;;;;;25.92;4.18;;;;;;;2.05;100.00;102424.47;5011810;28;20049;-67
2022/01/20 05:20:14;;;;;;;31.55;4.88;;;;;;;2.10;100.00;102416.91;5011825;28;20040;-70
2022/01/20 05:22:39;;;;;;;25.67;4.15;;;;;;;2.04;100.00;102433.06;5011641;28;20030;-66
2022/01/20 05:25:06;;;;;;;27.38;4.47;;;;;;;2.09;100.00;102435.97;5011541;28;20065;-70
2022/01/20 05:27:32;;;;;;;24.60;4.28;;;;;;;2.12;100.00;102441.38;5033515;28;20032;-70
2022/01/20 05:29:58;;;;;;;26.83;4.25;;;;;;;2.09;100.00;102446.41;5033744;28;20030;-69
2022/01/20 05:32:24;;;;;;;27.60;4.38;;;;;;;2.11;100.00;102439.56;5033486;28;20056;-70
2022/01/20 05:34:50;;;;;;;25.77;4.30;;;;;;;2.14;100.00;102442.41;5033584;28;20033;-66
2022/01/20 05:37:16;;;;;;;26.98;4.35;;;;;;;2.14;100.00;102449.31;5033518;28;20013;-67
2022/01/20 05:39:42;;;;;;;25.50;4.03;;;;;;;2.21;100.00;102464.56;5033943;28;20056;-66
2022/01/20 05:42:08;;;;;;;26.70;4.40;;;;;;;2.32;100.00;102463.53;5033321;28;20029;-66
2022/01/20 05:44:34;;;;;;;25.27;3.70;;;;;;;2.30;100.00;102451.19;5032977;28;20048;-70
2022/01/20 05:47:05;;;;;;;24.73;4.28;;;;;;;2.12;100.00;102461.38;5033599;28;20480;-70
2022/01/20 05:49:30;;;;;;;25.40;4.18;;;;;;;2.08;100.00;102466.38;5033324;28;20048;-68
2022/01/20 05:51:56;;;;;;;23.40;3.95;;;;;;;2.03;100.00;102473.00;5033118;28;20480;-70
2022/01/20 05:54:22;;;;;;;25.58;3.90;;;;;;;2.02;100.00;102476.41;5033205;28;20033;-70
2022/01/20 05:56:48;;;;;;;21.50;3.80;;;;;;;1.98;100.00;102487.47;5032991;28;20026;-66
2022/01/20 05:59:14;;;;;;;24.60;3.88;;;;;;;1.96;100.00;102490.78;5033331;28;20033;-71
2022/01/20 06:01:40;;;;;;;24.83;4.00;;;;;;;1.92;100.00;102489.66;5033402;28;20025;-67
2022/01/20 06:04:09;;;;;;;23.25;3.85;;;;;;;1.99;100.00;102491.84;5032814;28;20365;-71
2022/01/20 06:06:36;;;;;;;23.77;4.20;;;;;;;1.91;100.00;102493.97;5032807;28;20388;-66
2022/01/20 06:09:04;;;;;;;25.15;4.15;;;;;;;1.96;100.00;102493.38;5032407;28;20104;-66
2022/01/20 06:11:29;;;;;;;26.52;4.13;;;;;;;1.93;100.00;102501.91;5032642;28;20022;-66
2022/01/20 06:13:55;;;;;;;27.27;4.40;;;;;;;1.90;100.00;102501.69;5047018;28;20106;-66
2022/01/20 06:16:20;;;;;;;27.38;4.32;;;;;;;1.88;100.00;102504.22;5072840;28;20032;-70
2022/01/20 06:18:45;;;;;;;26.40;4.28;;;;;;;1.89;100.00;102510.31;5072977;28;20044;-71
2022/01/20 06:21:11;;;;;;;29.35;4.55;;;;;;;1.89;100.00;102506.03;5072584;28;20467;-70
2022/01/20 06:23:37;;;;;;;28.38;4.63;;;;;;;1.89;100.00;102511.25;5072827;28;20016;-70
2022/01/20 06:26:05;;;;;;;26.52;4.35;;;;;;;1.89;100.00;102519.06;5062845;28;20039;-72
2022/01/20 06:28:32;;;;;;;26.33;4.65;;;;;;;1.96;100.00;102528.19;5061824;28;20479;-71
2022/01/20 06:30:57;;;;;;;29.65;4.32;;;;;;;1.92;100.00;102531.38;5072603;28;20107;-71
2022/01/20 06:33:23;;;;;;;27.13;4.78;;;;;;;1.89;100.00;102534.72;5071314;28;20114;-71
2022/01/20 06:35:48;;;;;;;32.08;4.68;;;;;;;1.85;100.00;102531.78;5064680;28;20032;-71
2022/01/20 06:38:15;;;;;;;31.17;4.68;;;;;;;1.84;100.00;102530.88;5065178;28;20029;-70
2022/01/20 06:40:41;;;;;;;27.45;4.80;;;;;;;1.85;100.00;102534.38;5057348;28;20028;-71
2022/01/20 06:43:06;;;;;;;27.55;4.60;;;;;;;1.82;100.00;102523.75;5069980;28;20048;-72
2022/01/20 06:45:31;;;;;;;27.42;4.72;;;;;;;1.77;100.00;102531.28;5072123;28;20095;-71
2022/01/20 06:47:57;;;;;;;26.27;4.35;;;;;;;1.79;100.00;102533.97;5075113;28;20032;-71
2022/01/20 06:50:23;;;;;;;30.23;4.70;;;;;;;1.90;100.00;102546.94;5074941;28;20074;-70
2022/01/20 06:52:49;;;;;;;28.00;4.88;;;;;;;1.83;100.00;102549.03;5072680;28;20477;-70
2022/01/20 06:55:15;;;;;;;28.67;4.65;;;;;;;1.79;100.00;102558.38;5068338;28;20049;-71
2022/01/20 06:57:41;;;;;;;29.88;4.60;;;;;;;1.76;100.00;102557.25;5071247;28;20025;-71
2022/01/20 07:00:13;;;;;;;28.92;4.30;;;;;;;1.80;100.00;102570.59;5075155;28;20067;-71
2022/01/20 07:02:38;;;;;;;31.70;5.03;;;;;;;1.71;100.00;102573.47;5073589;28;20028;-72
2022/01/20 07:05:05;;;;;;;32.35;5.22;;;;;;;1.70;100.00;102571.69;5072928;28;20077;-70
2022/01/20 07:07:31;;;;;;;26.17;4.50;;;;;;;1.62;100.00;102580.69;5068570;28;20806;-71
2022/01/20 07:09:57;;;;;;;28.70;4.68;;;;;;;1.54;100.00;102582.78;5074369;28;20529;-71
2022/01/20 07:12:22;;;;;;;29.63;5.00;;;;;;;1.50;100.00;102582.44;5070626;28;20021;-71
2022/01/20 07:14:48;;;;;;;32.35;5.30;;;;;;;1.51;100.00;102584.25;5078051;28;20092;-67
2022/01/20 07:17:13;;;;;;;30.55;4.80;;;;;;;1.54;100.00;102587.06;5071563;28;20119;-69
2022/01/20 07:19:39;;;;;;;29.95;4.80;;;;;;;1.55;100.00;102578.47;5073565;28;20028;-70
2022/01/20 07:22:04;;;;;;;26.95;4.70;;;;;;;1.49;100.00;102591.97;5076084;28;20027;-70
2022/01/20 07:24:30;;;;;;;29.85;5.13;;;;;;;1.39;100.00;102590.41;5074940;28;20450;-69
2022/01/20 07:26:57;;;;;;;29.15;5.00;;;;;;;1.41;100.00;102598.34;5077768;28;20455;-69
2022/01/20 07:29:23;;;;;;;27.92;5.13;;;;;;;1.49;100.00;102596.28;5072012;28;20371;-71
2022/01/20 07:31:48;;;;;;;29.27;5.10;;;;;;;1.55;100.00;102604.53;5072893;28;20037;-73
2022/01/20 07:34:13;;;;;;;29.13;5.18;;;;;;;1.64;100.00;102612.06;5073577;28;20470;-70
2022/01/20 07:36:39;;;;;;;29.15;4.78;;;;;;;1.65;100.00;102613.91;5075721;28;20032;-71
2022/01/20 07:39:04;;;;;;;28.50;5.10;;;;;;;1.63;100.00;102620.69;5069484;28;20024;-72
2022/01/20 07:41:31;;;;;;;29.95;5.28;;;;;;;1.66;100.00;102619.22;5079400;28;20154;-70
2022/01/20 07:43:56;;;;;;;29.48;4.82;;;;;;;1.66;100.00;102626.09;5075096;28;20024;-70
2022/01/20 07:46:21;;;;;;;27.73;4.65;;;;;;;1.73;100.00;102629.28;5079189;28;20028;-71
2022/01/20 07:48:47;;;;;;;28.90;5.35;;;;;;;1.71;100.00;102623.03;5083379;28;20028;-69
2022/01/20 07:51:12;;;;;;;25.70;5.15;;;;;;;1.69;100.00;102631.53;5078664;28;20032;-71
2022/01/20 07:53:38;;;;;;;29.63;5.15;;;;;;;1.75;100.00;102639.81;5077243;28;20024;-70
2022/01/20 07:56:05;;;;;;;30.27;5.13;;;;;;;1.73;100.00;102641.38;5078976;28;20020;-70
2022/01/20 07:58:32;;;;;;;33.72;5.35;;;;;;;1.73;100.00;102646.59;5079145;28;20017;-72
2022/01/20 08:00:57;;;;;;;31.13;5.25;;;;;;;1.73;100.00;102647.53;5080230;28;20487;-73
2022/01/20 08:03:23;;;;;;;28.75;4.95;;;;;;;1.74;100.00;102643.19;5073799;28;20035;-73
2022/01/20 08:05:48;;;;;;;30.55;5.50;;;;;;;1.78;100.00;102636.47;5073026;28;20044;-70
2022/01/20 08:08:13;;;;;;;31.65;5.18;;;;;;;1.81;100.00;102645.44;5071754;28;20029;-67
2022/01/20 08:10:39;;;;;;;29.67;5.07;;;;;;;1.81;100.00;102652.38;5073477;28;20514;-73
2022/01/20 08:13:05;;;;;;;29.92;5.00;;;;;;;1.74;100.00;102659.75;5078603;28;20104;-71
2022/01/20 08:15:30;;;;;;;30.08;5.25;;;;;;;1.72;100.00;102660.47;5070690;28;20021;-70
2022/01/20 08:17:56;;;;;;;26.35;4.53;;;;;;;1.77;100.00;102666.00;5071668;28;20025;-73
2022/01/20 08:20:22;;;;;;;29.60;5.20;;;;;;;1.79;100.00;102677.41;5073386;28;20020;-72
2022/01/20 08:22:47;;;;;;;31.52;5.95;;;;;;;1.82;100.00;102682.84;5074204;28;20078;-67
2022/01/20 08:25:14;;;;;;;30.60;5.85;;;;;;;1.87;100.00;102691.91;5077666;28;20489;-66
2022/01/20 08:27:41;;;;;;;32.22;5.50;;;;;;;1.77;100.00;102679.91;5071860;28;20024;-71
2022/01/20 08:30:10;;;;;;;31.42;5.93;;;;;;;1.78;100.00;102680.81;5066016;28;20086;-72
2022/01/20 08:32:35;;;;;;;27.17;4.90;;;;;;;1.83;100.00;102677.72;5067985;28;20032;-71
2022/01/20 08:35:05;;;;;;;27.23;4.88;;;;;;;1.92;100.00;102685.28;5068902;28;20530;-67
2022/01/20 08:37:31;;;;;;;28.10;5.60;;;;;;;1.94;100.00;102685.38;5073811;28;20502;-70
2022/01/20 08:39:56;;;;;;;31.48;5.90;;;;;;;1.93;100.00;102689.72;5077214;28;20068;-70
2022/01/20 08:42:23;;;;;;;29.88;5.38;;;;;;;1.92;100.00;102691.44;5078232;28;20059;-67
2022/01/20 08:44:49;;;;;;;30.73;5.18;;;;;;;2.02;100.00;102695.56;5070204;28;20040;-67
2022/01/20 08:47:17;;;;;;;28.30;5.15;;;;;;;1.99;100.00;102695.34;5078270;28;20086;-70
2022/01/20 08:49:45;;;;;;;25.55;4.88;;;;;;;1.99;100.00;102702.28;5073005;28;20059;-70
2022/01/20 08:52:10;;;;;;;26.77;5.00;;;;;;;2.00;100.00;102697.16;5073747;28;20030;-69
2022/01/20 08:54:36;;;;;;;27.88;4.70;;;;;;;2.07;100.00;102701.09;5076473;28;20103;-70
2022/01/20 08:57:01;;;;;;;26.80;4.85;;;;;;;2.14;100.00;102705.94;5071897;28;20028;-70
2022/01/20 08:59:26;;;;;;;25.23;4.15;;;;;;;2.15;100.00;102699.91;5069053;28;20494;-70
2022/01/20 09:01:52;;;;;;;25.45;4.20;;;;;;;2.38;100.00;102701.47;5073757;28;20028;-70
2022/01/20 09:04:17;;;;;;;25.60;4.18;;;;;;;2.39;100.00;102707.63;5068751;28;20021;-72
2022/01/20 09:06:43;;;;;;;25.25;4.00;;;;;;;2.49;100.00;102716.94;5071994;28;20036;-71
2022/01/20 09:09:08;;;;;;;25.17;4.05;;;;;;;2.54;100.00;102716.47;5068642;28;20043;-71
2022/01/20 09:11:38;;;;;;;20.98;3.55;;;;;;;2.55;100.00;102725.19;5078086;28;20028;-72
2022/01/20 09:16:48;;;;;;;23.13;3.83;;;;;;;2.57;100.00;102742.78;5066383;28;20407;-72
2022/01/20 09:19:13;;;;;;;25.27;3.75;;;;;;;2.57;100.00;102748.00;5075150;28;20024;-72
2022/01/20 09:21:39;;;;;;;21.45;3.47;;;;;;;2.61;100.00;102749.13;5068419;28;20024;-71
2022/01/20 09:24:06;;;;;;;25.95;4.00;;;;;;;2.58;100.00;102746.31;5067631;28;20008;-72
2022/01/20 09:26:32;;;;;;;22.77;4.32;;;;;;;2.64;100.00;102746.72;5071307;28;20081;-72
2022/01/20 09:28:58;;;;;;;23.02;3.80;;;;;;;2.65;100.00;102748.53;5070161;28;20066;-71
2022/01/20 09:31:25;;;;;;;24.08;4.13;;;;;;;2.60;100.00;102739.47;5071759;28;20052;-71
2022/01/20 09:33:52;;;;;;;24.83;4.28;;;;;;;2.64;100.00;102736.28;5076857;28;20024;-70
2022/01/20 09:36:19;;;;;;;23.65;3.90;;;;;;;2.54;100.00;102744.28;5065816;28;20060;-73
2022/01/20 09:38:44;;;;;;;22.23;3.85;;;;;;;2.49;100.00;102743.06;5075847;28;20020;-73
2022/01/20 09:41:10;;;;;;;25.25;4.30;;;;;;;2.61;100.00;102736.06;5062307;28;20028;-72
2022/01/20 09:43:35;;;;;;;23.58;4.30;;;;;;;3.07;100.00;102731.28;5067222;28;20028;-71
2022/01/20 09:46:02;;;;;;;22.05;3.58;;;;;;;3.68;100.00;102741.19;5074622;28;20384;-72
2022/01/20 09:48:29;;;;;;;27.40;4.30;;;;;;;3.74;100.00;102733.75;5069937;28;20045;-70
2022/01/20 09:50:56;;;;;;;23.33;3.97;;;;;;;3.56;100.00;102741.34;5075447;28;20095;-71
2022/01/20 09:53:22;;;;;;;24.58;4.35;;;;;;;3.45;100.00;102737.13;5074189;28;20532;-71
2022/01/20 09:55:48;;;;;;;22.00;3.83;;;;;;;3.36;100.00;102758.38;5069702;28;20052;-71
2022/01/20 09:58:15;;;;;;;24.63;4.05;;;;;;;3.34;100.00;102760.00;5070506;28;20016;-70
2022/01/20 10:00:43;;;;;;;22.25;3.75;;;;;;;3.29;100.00;102761.38;5075955;28;20058;-70
2022/01/20 10:03:12;;;;;;;27.38;4.28;;;;;;;3.10;100.00;102781.13;5069855;28;20107;-71
2022/01/20 10:05:41;;;;;;;22.83;4.18;;;;;;;2.93;100.00;102787.84;5072783;28;20032;-70
2022/01/20 10:08:14;;;;;;;20.15;4.03;;;;;;;3.16;100.00;102792.78;5074952;28;20476;-72
2022/01/20 10:10:41;;;;;;;;;;;;;;;3.49;100.00;102797.59;5070190;28;20033;-71
2022/01/20 10:13:08;;;;;;;21.02;3.63;;;;;;;3.96;100.00;102796.19;5073012;28;19915;-71
2022/01/20 10:15:36;;;;;;;22.40;4.03;;;;;;;4.09;100.00;102796.94;5072060;28;20031;-71
2022/01/20 10:18:13;;;;;;;21.48;3.50;;;;;;;4.16;100.00;102789.53;5066746;28;20048;-71
2022/01/20 10:20:59;;;;;;;23.73;3.97;;;;;;;4.21;100.00;102796.78;5062552;28;20035;-71
2022/01/20 10:23:39;;;;;;;20.27;3.40;;;;;;;4.52;99.62;102803.06;5062471;28;20087;-71
2022/01/20 10:26:23;;;;;;;23.77;4.15;;;;;;;4.59;98.00;102806.06;5066576;28;20082;-69
2022/01/20 10:29:03;;;;;;;21.98;4.00;;;;;;;5.06;95.90;102808.88;5063661;28;20112;-70
2022/01/20 10:31:34;;;;;;;21.65;3.53;;;;;;;5.32;93.89;102804.22;5067199;28;20079;-71
2022/01/20 10:34:01;;;;;;;22.40;3.80;;;;;;;5.65;89.33;102803.41;5065243;28;20047;-70
2022/01/20 10:36:26;;;;;;;21.88;3.75;;;;;;;5.85;85.66;102805.41;5067214;28;20024;-72
2022/01/20 10:38:57;;;;;;;22.42;3.88;;;;;;;6.11;84.72;102812.13;5060847;28;20363;-71
2022/01/20 10:41:37;;;;;;;23.02;3.58;;;;;;;6.65;81.56;102814.06;5060247;28;20028;-71
2022/01/20 10:44:14;;;;;;;20.95;3.60;;;;;;;7.12;78.26;102820.84;5064962;28;20375;-70
2022/01/20 10:46:54;;;;;;;19.50;3.15;;;;;;;7.32;75.78;102818.28;5066988;28;20141;-72
2022/01/20 10:49:21;;;;;;;21.58;3.63;;;;;;;7.28;75.13;102821.59;5069633;28;20107;-71
2022/01/20 10:51:58;;;;;;;23.60;3.90;;;;;;;6.61;74.20;102815.66;5067782;28;20035;-71
2022/01/20 10:54:23;;;;;;;21.48;3.60;;;;;;;5.90;76.22;102819.72;5067273;28;20029;-72
2022/01/20 10:56:59;;;;;;;21.98;3.92;;;;;;;5.53;76.91;102817.69;5069976;28;20099;-72
2022/01/20 10:59:25;;;;;;;23.10;4.05;;;;;;;5.19;80.32;102814.84;5079096;28;20025;-72
2022/01/20 11:02:16;;;;;;;22.50;3.90;;;;;;;5.07;84.27;102807.19;5071150;28;20029;-72
2022/01/20 11:04:42;;;;;;;25.27;4.18;;;;;;;5.10;82.50;102809.03;5070365;28;20032;-72
2022/01/20 11:07:09;;;;;;;22.35;3.50;;;;;;;5.14;77.14;102798.84;5074751;28;20033;-72
2022/01/20 11:09:39;;;;;;;27.17;4.35;;;;;;;4.93;80.90;102813.31;5082984;28;20024;-72
2022/01/20 11:12:05;;;;;;;24.35;4.00;;;;;;;4.86;79.91;102807.72;5075051;28;20074;-72
2022/01/20 11:14:32;;;;;;;22.05;3.70;;;;;;;4.91;80.20;102817.56;5072774;28;20041;-72
2022/01/20 11:16:59;;;;;;;24.40;3.80;;;;;;;4.91;79.02;102826.34;5073749;28;20060;-72
2022/01/20 11:19:25;;;;;;;22.20;3.53;;;;;;;4.87;78.99;102817.38;5064482;28;20029;-72
2022/01/20 11:22:03;;;;;;;23.58;3.80;;;;;;;4.87;80.77;102822.63;5079296;28;20021;-72
2022/01/20 11:24:28;;;;;;;24.83;4.20;;;;;;;4.97;81.34;102815.31;5072069;28;20479;-73
2022/01/20 11:26:56;;;;;;;22.60;3.90;;;;;;;6.59;77.13;102822.53;5076603;28;20036;-74
2022/01/20 11:29:25;;;;;;;23.52;3.55;;;;;;;8.06;70.33;102813.91;5074153;28;20370;-72
2022/01/20 11:31:52;;;;;;;23.13;4.10;;;;;;;8.86;65.91;102814.84;5075280;28;20024;-72
2022/01/20 11:34:20;;;;;;;22.20;3.67;;;;;;;8.20;66.47;102814.56;5072335;28;20426;-73
2022/01/20 11:36:48;;;;;;;21.70;3.88;;;;;;;7.30;68.42;102810.34;5077487;28;20039;-73
2022/01/20 11:39:14;;;;;;;23.95;3.92;;;;;;;6.67;69.55;102807.19;5076561;28;20407;-73
2022/01/20 11:41:49;;;;;;;23.90;4.20;;;;;;;6.45;74.60;102803.44;5076789;28;20016;-72
2022/01/20 11:44:26;;;;;;;26.60;4.30;;;;;;;6.40;77.17;102804.00;5082619;28;20059;-73
2022/01/20 11:46:53;;;;;;;23.05;3.67;;;;;;;6.23;74.59;102798.78;5073200;28;20033;-71
2022/01/20 11:49:21;;;;;;;23.02;3.80;;;;;;;5.97;72.99;102806.91;5076391;28;20409;-72
2022/01/20 11:51:48;;;;;;;24.30;3.85;;;;;;;5.58;74.34;102796.94;5076654;28;20024;-73
2022/01/20 11:54:31;;;;;;;22.15;3.65;;;;;;;5.54;76.92;102801.09;5068004;28;20021;-73
2022/01/20 11:57:30;;;;;;;;;;;;;;;5.68;75.07;102794.00;5073390;28;20038;-72
2022/01/20 11:59:59;;;;;;;23.25;4.03;;;;;;;5.18;77.64;102797.28;5014313;28;19947;-71
2022/01/20 12:02:34;;;;;;;22.58;3.72;;;;;;;5.22;78.10;102807.16;5008596;28;20113;-71
2022/01/20 12:05:01;;;;;;;24.90;4.10;;;;;;;5.17;78.67;102808.59;5012662;28;20112;-73
2022/01/20 12:07:34;;;;;;;22.83;3.50;;;;;;;5.26;77.70;102809.13;5006016;28;20591;-71
2022/01/20 12:10:05;;;;;;;24.30;3.90;;;;;;;5.33;76.90;102805.13;5010131;28;20121;-72
2022/01/20 12:12:31;;;;;;;24.17;3.80;;;;;;;6.02;74.49;102787.13;5006523;28;20140;-72
2022/01/20 12:15:08;;;;;;;21.63;3.80;;;;;;;7.49;71.39;102784.91;5006723;28;20045;-72
2022/01/20 12:17:34;;;;;;;21.00;3.40;;;;;;;8.90;64.97;102776.31;5007571;28;20445;-74
2022/01/20 12:19:59;;;;;;;20.35;3.80;;;;;;;10.56;61.99;102781.84;5007448;28;20030;-74
2022/01/20 12:22:25;;;;;;;21.95;3.72;;;;;;;10.76;55.65;102782.53;5005734;28;20046;-72
2022/01/20 12:24:56;;;;;;;20.10;3.38;;;;;;;9.27;59.06;102772.53;5007648;28;20030;-72
2022/01/20 12:27:23;;;;;;;20.42;3.25;;;;;;;8.06;62.24;102776.13;5003193;28;20030;-70
2022/01/20 12:29:49;;;;;;;20.90;3.22;;;;;;;7.45;64.22;102768.06;5006244;28;20542;-70